createdAt,value
2019-01-20T00:00:58.599Z,6.30
2019-01-20T00:01:58.612Z,6.50
2019-01-20T00:02:58.578Z,5.90
2019-01-20T00:03:58.566Z,6.50
2019-01-20T00:04:58.554Z,6.10
2019-01-20T00:05:58.589Z,6.50
2019-01-20T00:06:58.541Z,6.00
2019-01-20T00:07:58.521Z,6.20
2019-01-20T00:08:58.512Z,6.30
2019-01-20T00:09:58.504Z,5.40
2019-01-20T00:10:58.574Z,5.90
2019-01-20T00:11:58.482Z,6.40
2019-01-20T00:12:58.475Z,5.70
2019-01-20T00:13:58.460Z,6.20
2019-01-20T00:14:58.488Z,5.70
2019-01-20T00:15:58.439Z,5.40
2019-01-20T00:16:58.424Z,5.80
2019-01-20T00:17:58.413Z,5.50
2019-01-20T00:18:58.403Z,6.00
2019-01-20T00:19:58.416Z,6.10
2019-01-20T00:20:58.397Z,6.20
2019-01-20T00:21:58.386Z,5.80
2019-01-20T00:22:58.361Z,5.70
2019-01-20T00:23:58.346Z,6.00
2019-01-20T00:24:58.385Z,5.90
2019-01-20T00:25:58.327Z,6.10
2019-01-20T00:26:58.319Z,5.70
2019-01-20T00:27:58.315Z,6.00
2019-01-20T00:28:58.300Z,6.20
2019-01-20T00:29:58.316Z,6.10
2019-01-20T00:30:58.270Z,6.30
2019-01-20T00:31:58.262Z,5.40
2019-01-20T00:32:58.251Z,5.60
2019-01-20T00:33:58.237Z,6.00
2019-01-20T00:34:58.261Z,5.70
2019-01-20T00:35:58.221Z,5.60
2019-01-20T00:36:58.242Z,5.60
2019-01-20T00:37:58.197Z,5.90
2019-01-20T00:38:58.189Z,5.60
2019-01-20T00:39:58.179Z,5.80
2019-01-20T00:40:58.163Z,5.90
2019-01-20T00:41:58.188Z,6.20
2019-01-20T00:42:58.148Z,5.60
2019-01-20T00:43:58.135Z,5.90
2019-01-20T00:45:02.575Z,5.60
2019-01-20T00:45:59.106Z,5.80
2019-01-20T00:46:58.127Z,5.80
2019-01-20T00:47:58.085Z,5.60
2019-01-20T00:48:58.074Z,5.50
2019-01-20T00:49:58.072Z,5.90
2019-01-20T00:50:58.057Z,5.50
2019-01-20T00:51:58.073Z,5.40
2019-01-20T00:52:58.031Z,5.30
2019-01-20T00:53:58.019Z,5.20
2019-01-20T00:54:58.009Z,5.70
2019-01-20T00:55:57.999Z,5.10
2019-01-20T00:56:58.019Z,5.40
2019-01-20T00:57:57.979Z,5.60
2019-01-20T00:58:58.002Z,5.30
2019-01-20T00:59:57.964Z,5.80
2019-01-20T01:00:57.944Z,5.50
2019-01-20T01:01:57.951Z,5.40
2019-01-20T01:02:57.954Z,5.70
2019-01-20T01:03:57.920Z,5.90
2019-01-20T01:04:57.947Z,5.60
2019-01-20T01:05:57.895Z,5.40
2019-01-20T01:06:57.883Z,5.40
2019-01-20T01:07:57.933Z,5.50
2019-01-20T01:08:57.856Z,5.40
2019-01-20T01:09:57.849Z,5.20
2019-01-20T01:10:57.833Z,5.40
2019-01-20T01:11:57.830Z,5.70
2019-01-20T01:12:57.843Z,5.40
2019-01-20T01:13:57.805Z,5.30
2019-01-20T01:14:57.815Z,5.40
2019-01-20T01:15:57.778Z,5.60
2019-01-20T01:16:57.774Z,5.70
2019-01-20T01:17:57.808Z,5.50
2019-01-20T01:18:57.757Z,5.50
2019-01-20T01:19:57.738Z,5.60
2019-01-20T01:20:57.734Z,5.30
2019-01-20T01:21:57.714Z,5.70
2019-01-20T01:22:57.731Z,5.00
2019-01-20T01:23:57.698Z,5.10
2019-01-20T01:24:57.683Z,4.90
2019-01-20T01:25:57.670Z,5.30
2019-01-20T01:26:57.663Z,5.30
2019-01-20T01:27:57.677Z,5.10
2019-01-20T01:28:57.646Z,5.20
2019-01-20T01:29:57.687Z,5.10
2019-01-20T01:30:57.621Z,5.20
2019-01-20T01:31:57.610Z,5.00
2019-01-20T01:32:57.596Z,5.30
2019-01-20T01:33:57.585Z,5.00
2019-01-20T01:34:57.609Z,5.00
2019-01-20T01:35:57.563Z,5.20
2019-01-20T01:36:57.555Z,5.10
2019-01-20T01:37:57.542Z,5.50
2019-01-20T01:38:57.541Z,5.10
2019-01-20T01:39:57.543Z,5.30
2019-01-20T01:40:57.550Z,5.40
2019-01-20T01:41:57.500Z,5.10
2019-01-20T01:42:57.484Z,4.90
2019-01-20T01:43:57.473Z,4.50
2019-01-20T01:44:57.465Z,4.60
2019-01-20T01:45:57.477Z,5.00
2019-01-20T01:46:57.453Z,5.50
2019-01-20T01:47:57.431Z,4.90
2019-01-20T01:48:57.455Z,5.00
2019-01-20T01:49:57.409Z,4.90
2019-01-20T01:50:57.398Z,5.00
2019-01-20T01:51:57.387Z,5.10
2019-01-20T01:52:57.384Z,4.90
2019-01-20T01:53:57.390Z,5.40
2019-01-20T01:54:57.353Z,5.10
2019-01-20T01:55:57.367Z,4.70
2019-01-20T01:56:57.332Z,4.80
2019-01-20T01:57:57.322Z,5.00
2019-01-20T01:58:57.327Z,5.10
2019-01-20T01:59:57.324Z,5.20
2019-01-20T02:00:57.294Z,5.00
2019-01-20T02:01:57.281Z,5.00
2019-01-20T02:02:57.266Z,5.10
2019-01-20T02:03:57.284Z,4.90
2019-01-20T02:04:57.274Z,5.30
2019-01-20T02:05:57.257Z,5.20
2019-01-20T02:06:57.248Z,5.20
2019-01-20T02:07:57.212Z,5.30
2019-01-20T02:08:57.202Z,5.10
2019-01-20T02:09:57.192Z,5.30
2019-01-20T02:10:57.180Z,5.30
2019-01-20T02:11:57.199Z,4.50
2019-01-20T02:12:57.158Z,5.00
2019-01-20T02:13:57.148Z,5.20
2019-01-20T02:14:57.138Z,5.00
2019-01-20T02:15:57.152Z,5.40
2019-01-20T02:16:57.116Z,5.20
2019-01-20T02:17:57.121Z,4.80
2019-01-20T02:18:57.094Z,5.40
2019-01-20T02:19:57.113Z,4.90
2019-01-20T02:20:57.071Z,5.30
2019-01-20T02:21:57.103Z,4.80
2019-01-20T02:22:57.050Z,4.80
2019-01-20T02:23:57.044Z,5.20
2019-01-20T02:24:57.034Z,5.00
2019-01-20T02:25:57.017Z,4.90
2019-01-20T02:26:57.041Z,5.20
2019-01-20T02:27:58.645Z,5.20
2019-01-20T02:28:56.984Z,5.00
2019-01-20T02:29:56.988Z,5.30
2019-01-20T02:30:56.972Z,5.20
2019-01-20T02:31:57.004Z,5.00
2019-01-20T02:32:56.944Z,5.30
2019-01-20T02:33:56.929Z,5.40
2019-01-20T02:34:56.921Z,5.20
2019-01-20T02:35:56.918Z,5.20
2019-01-20T02:36:56.927Z,4.80
2019-01-20T02:37:56.906Z,5.20
2019-01-20T02:38:56.879Z,5.10
2019-01-20T02:39:56.868Z,5.10
2019-01-20T02:40:56.855Z,5.00
2019-01-20T02:41:56.886Z,4.80
2019-01-20T02:42:56.880Z,5.60
2019-01-20T02:43:56.825Z,5.30
2019-01-20T02:44:56.814Z,5.30
2019-01-20T02:45:56.800Z,4.90
2019-01-20T02:46:56.792Z,5.10
2019-01-20T02:47:56.830Z,5.10
2019-01-20T02:48:56.770Z,5.20
2019-01-20T02:49:56.758Z,5.30
2019-01-20T02:50:56.748Z,5.50
2019-01-20T02:51:56.733Z,4.80
2019-01-20T02:52:56.763Z,5.40
2019-01-20T02:53:56.719Z,5.30
2019-01-20T02:54:56.705Z,5.30
2019-01-20T02:55:56.690Z,5.40
2019-01-20T02:56:56.687Z,5.30
2019-01-20T02:57:56.706Z,5.20
2019-01-20T02:58:56.658Z,5.40
2019-01-20T02:59:56.647Z,5.30
2019-01-20T03:00:56.638Z,5.60
2019-01-20T03:01:56.629Z,5.60
2019-01-20T03:02:56.661Z,5.00
2019-01-20T03:03:56.611Z,5.30
2019-01-20T03:04:56.595Z,5.50
2019-01-20T03:05:56.581Z,5.00
2019-01-20T03:06:56.571Z,5.70
2019-01-20T03:07:56.590Z,5.00
2019-01-20T03:08:56.553Z,5.30
2019-01-20T03:09:56.552Z,5.50
2019-01-20T03:10:56.531Z,5.80
2019-01-20T03:12:03.502Z,5.40
2019-01-20T03:12:57.505Z,5.50
2019-01-20T03:13:56.498Z,5.90
2019-01-20T03:14:56.488Z,5.40
2019-01-20T03:15:56.484Z,5.50
2019-01-20T03:16:56.491Z,6.00
2019-01-20T03:17:56.458Z,5.40
2019-01-20T03:18:56.469Z,5.50
2019-01-20T03:19:56.430Z,5.40
2019-01-20T03:20:56.453Z,5.60
2019-01-20T03:21:56.413Z,5.70
2019-01-20T03:22:56.430Z,5.50
2019-01-20T03:23:56.386Z,5.60
2019-01-20T03:24:56.377Z,5.70
2019-01-20T03:25:56.370Z,5.10
2019-01-20T03:26:56.380Z,5.60
2019-01-20T03:27:56.379Z,5.50
2019-01-20T03:28:56.347Z,5.70
2019-01-20T03:29:56.321Z,5.50
2019-01-20T03:30:56.313Z,5.70
2019-01-20T03:31:56.308Z,5.60
2019-01-20T03:32:56.313Z,5.20
2019-01-20T03:33:56.278Z,5.30
2019-01-20T03:34:56.271Z,6.10
2019-01-20T03:35:56.292Z,5.80
2019-01-20T03:36:56.255Z,6.10
2019-01-20T03:37:56.238Z,5.60
2019-01-20T03:38:56.244Z,5.20
2019-01-20T03:39:56.213Z,5.70
2019-01-20T03:40:56.229Z,5.60
2019-01-20T03:41:56.207Z,5.70
2019-01-20T03:42:56.180Z,5.90
2019-01-20T03:43:56.171Z,5.90
2019-01-20T03:44:56.159Z,5.80
2019-01-20T03:45:56.181Z,5.80
2019-01-20T03:46:56.146Z,5.90
2019-01-20T03:47:56.141Z,5.80
2019-01-20T03:48:56.114Z,6.40
2019-01-20T03:49:56.107Z,6.10
2019-01-20T03:50:56.121Z,6.20
2019-01-20T03:51:56.082Z,6.20
2019-01-20T03:52:56.074Z,5.80
2019-01-20T03:53:56.074Z,6.60
2019-01-20T03:54:56.061Z,5.60
2019-01-20T03:55:56.065Z,6.20
2019-01-20T03:56:56.030Z,5.90
2019-01-20T03:57:56.018Z,5.90
2019-01-20T03:58:56.034Z,6.20
2019-01-20T03:59:55.997Z,6.00
2019-01-20T04:00:55.993Z,6.00
2019-01-20T04:01:55.999Z,6.60
2019-01-20T04:02:55.969Z,6.30
2019-01-20T04:03:55.952Z,5.50
2019-01-20T04:04:55.941Z,6.10
2019-01-20T04:05:55.931Z,6.10
2019-01-20T04:06:55.955Z,6.50
2019-01-20T04:07:55.907Z,6.00
2019-01-20T04:08:55.899Z,6.30
2019-01-20T04:09:55.890Z,5.80
2019-01-20T04:10:55.877Z,5.90
2019-01-20T04:11:55.892Z,6.00
2019-01-20T04:12:55.868Z,6.40
2019-01-20T04:13:55.848Z,6.00
2019-01-20T04:14:55.832Z,5.70
2019-01-20T04:15:55.821Z,5.60
2019-01-20T04:16:55.841Z,5.90
2019-01-20T04:17:55.804Z,6.00
2019-01-20T04:18:55.796Z,6.60
2019-01-20T04:19:55.791Z,6.80
2019-01-20T04:20:55.779Z,6.10
2019-01-20T04:21:55.794Z,6.50
2019-01-20T04:22:55.752Z,6.10
2019-01-20T04:23:55.735Z,5.90
2019-01-20T04:24:55.728Z,6.10
2019-01-20T04:25:55.716Z,6.00
2019-01-20T04:26:55.761Z,6.20
2019-01-20T04:27:55.693Z,5.50
2019-01-20T04:28:55.682Z,6.00
2019-01-20T04:29:55.670Z,6.40
2019-01-20T04:30:55.661Z,6.30
2019-01-20T04:31:55.679Z,5.70
2019-01-20T04:32:55.650Z,5.70
2019-01-20T04:33:55.640Z,5.80
2019-01-20T04:34:55.640Z,6.40
2019-01-20T04:35:55.603Z,6.20
2019-01-20T04:36:55.620Z,6.40
2019-01-20T04:37:55.583Z,6.10
2019-01-20T04:38:55.576Z,6.30
2019-01-20T04:39:55.575Z,6.30
2019-01-20T04:40:55.552Z,6.20
2019-01-20T04:41:55.567Z,6.10
2019-01-20T04:42:55.530Z,6.00
2019-01-20T04:43:55.519Z,6.00
2019-01-20T04:44:55.510Z,5.90
2019-01-20T04:45:55.508Z,6.50
2019-01-20T04:46:55.512Z,6.50
2019-01-20T04:47:55.502Z,6.00
2019-01-20T04:48:55.466Z,6.20
2019-01-20T04:49:55.452Z,6.20
2019-01-20T04:50:55.444Z,6.20
2019-01-20T04:51:55.448Z,6.20
2019-01-20T04:52:55.477Z,6.30
2019-01-20T04:53:55.411Z,6.10
2019-01-20T04:54:55.399Z,6.30
2019-01-20T04:55:55.389Z,6.20
2019-01-20T04:56:55.377Z,6.00
2019-01-20T04:57:55.416Z,6.00
2019-01-20T04:58:55.356Z,6.10
2019-01-20T04:59:55.346Z,5.80
2019-01-20T05:00:55.336Z,6.40
2019-01-20T05:01:55.327Z,6.20
2019-01-20T05:02:55.342Z,6.60
2019-01-20T05:03:55.311Z,5.90
2019-01-20T05:04:55.293Z,6.30
2019-01-20T05:05:55.283Z,6.60
2019-01-20T05:06:55.269Z,6.80
2019-01-20T05:07:55.296Z,6.60
2019-01-20T05:08:55.247Z,6.40
2019-01-20T05:09:55.262Z,6.30
2019-01-20T05:10:55.229Z,6.20
2019-01-20T05:11:55.218Z,6.40
2019-01-20T05:12:55.237Z,5.90
2019-01-20T05:13:55.195Z,5.70
2019-01-20T05:14:55.215Z,6.30
2019-01-20T05:15:55.175Z,6.40
2019-01-20T05:16:55.190Z,6.10
2019-01-20T05:17:55.156Z,6.20
2019-01-20T05:18:55.143Z,6.10
2019-01-20T05:19:55.153Z,6.40
2019-01-20T05:20:55.118Z,6.30
2019-01-20T05:21:55.110Z,6.20
2019-01-20T05:22:55.099Z,6.60
2019-01-20T05:23:55.087Z,6.20
2019-01-20T05:24:55.109Z,6.30
2019-01-20T05:25:55.063Z,6.70
2019-01-20T05:26:55.053Z,6.30
2019-01-20T05:27:55.048Z,6.10
2019-01-20T05:28:55.035Z,6.60
2019-01-20T05:29:55.062Z,6.50
2019-01-20T05:30:55.023Z,6.90
2019-01-20T05:31:55.003Z,8.50
2019-01-20T05:32:54.990Z,8.30
2019-01-20T05:33:54.978Z,9.10
2019-01-20T05:34:54.999Z,9.10
2019-01-20T05:35:54.975Z,8.70
2019-01-20T05:36:54.954Z,9.00
2019-01-20T05:37:54.936Z,8.50
2019-01-20T05:38:54.950Z,8.00
2019-01-20T05:39:54.913Z,8.30
2019-01-20T05:40:54.903Z,7.60
2019-01-20T05:41:54.921Z,7.30
2019-01-20T05:42:54.902Z,7.50
2019-01-20T05:43:54.872Z,7.30
2019-01-20T05:44:54.862Z,7.60
2019-01-20T05:45:54.935Z,6.90
2019-01-20T05:46:54.836Z,7.00
2019-01-20T05:47:54.830Z,7.40
2019-01-20T05:48:54.821Z,6.90
2019-01-20T05:49:54.807Z,7.60
2019-01-20T05:50:54.818Z,7.30
2019-01-20T05:51:54.782Z,7.00
2019-01-20T05:52:54.774Z,7.30
2019-01-20T05:53:54.767Z,6.60
2019-01-20T05:54:54.769Z,7.40
2019-01-20T05:55:54.764Z,7.20
2019-01-20T05:56:54.729Z,6.70
2019-01-20T05:57:54.719Z,6.80
2019-01-20T05:58:54.710Z,6.70
2019-01-20T05:59:54.695Z,6.90
2019-01-20T06:00:54.728Z,6.70
2019-01-20T06:01:54.676Z,6.80
2019-01-20T06:02:54.664Z,6.80
2019-01-20T06:03:54.652Z,6.90
2019-01-20T06:04:54.642Z,7.20
2019-01-20T06:05:54.659Z,6.90
2019-01-20T06:06:54.662Z,7.10
2019-01-20T06:07:54.609Z,6.90
2019-01-20T06:08:54.599Z,6.90
2019-01-20T06:09:54.591Z,7.00
2019-01-20T06:10:54.579Z,7.40
2019-01-20T06:11:54.595Z,7.50
2019-01-20T06:12:54.666Z,6.70
2019-01-20T06:13:54.549Z,6.90
2019-01-20T06:14:54.537Z,7.30
2019-01-20T06:15:54.551Z,6.80
2019-01-20T06:16:54.543Z,7.30
2019-01-20T06:17:54.505Z,7.30
2019-01-20T06:18:54.502Z,7.10
2019-01-20T06:19:54.482Z,7.00
2019-01-20T06:20:54.472Z,7.20
2019-01-20T06:21:54.483Z,7.80
2019-01-20T06:22:54.446Z,7.30
2019-01-20T06:23:54.438Z,7.30
2019-01-20T06:24:54.433Z,7.30
2019-01-20T06:25:54.415Z,7.10
2019-01-20T06:26:54.431Z,7.60
2019-01-20T06:27:54.397Z,7.40
2019-01-20T06:28:54.385Z,7.30
2019-01-20T06:29:54.372Z,7.30
2019-01-20T06:30:54.395Z,7.00
2019-01-20T06:31:54.351Z,7.60
2019-01-20T06:32:54.339Z,7.20
2019-01-20T06:33:54.372Z,8.00
2019-01-20T06:34:54.320Z,8.20
2019-01-20T06:35:54.307Z,7.40
2019-01-20T06:36:54.300Z,8.10
2019-01-20T06:37:54.293Z,7.50
2019-01-20T06:38:54.312Z,7.30
2019-01-20T06:39:54.266Z,7.50
2019-01-20T06:40:54.252Z,7.20
2019-01-20T06:41:54.246Z,7.10
2019-01-20T06:43:01.293Z,7.90
2019-01-20T06:43:55.256Z,8.00
2019-01-20T06:44:54.225Z,7.30
2019-01-20T06:45:54.199Z,7.40
2019-01-20T06:46:54.187Z,7.70
2019-01-20T06:47:54.201Z,8.40
2019-01-20T06:48:54.171Z,8.20
2019-01-20T06:49:54.156Z,7.70
2019-01-20T06:50:54.144Z,7.40
2019-01-20T06:51:54.166Z,8.00
2019-01-20T06:52:54.128Z,8.20
2019-01-20T06:53:54.122Z,7.80
2019-01-20T06:54:54.102Z,7.90
2019-01-20T06:55:54.106Z,7.50
2019-01-20T06:56:54.104Z,7.90
2019-01-20T06:57:54.068Z,6.90
2019-01-20T06:58:54.064Z,7.60
2019-01-20T06:59:54.046Z,8.00
2019-01-20T07:00:54.037Z,7.80
2019-01-20T07:01:54.053Z,8.40
2019-01-20T07:02:54.018Z,7.70
2019-01-20T07:03:54.017Z,7.60
2019-01-20T07:04:53.993Z,8.10
2019-01-20T07:05:54.012Z,7.30
2019-01-20T07:06:53.971Z,7.20
2019-01-20T07:07:53.986Z,7.50
2019-01-20T07:08:53.965Z,7.80
2019-01-20T07:09:53.953Z,7.60
2019-01-20T07:10:53.936Z,7.40
2019-01-20T07:11:53.931Z,7.70
2019-01-20T07:12:53.937Z,7.60
2019-01-20T07:13:53.922Z,7.40
2019-01-20T07:14:53.887Z,7.30
2019-01-20T07:15:53.881Z,7.70
2019-01-20T07:16:53.866Z,7.80
2019-01-20T07:17:53.854Z,7.70
2019-01-20T07:18:53.873Z,7.50
2019-01-20T07:19:53.838Z,7.70
2019-01-20T07:20:53.836Z,7.90
2019-01-20T07:21:53.926Z,7.60
2019-01-20T07:22:53.819Z,8.40
2019-01-20T07:23:53.789Z,8.00
2019-01-20T07:24:53.778Z,8.00
2019-01-20T07:25:53.774Z,8.30
2019-01-20T07:26:53.782Z,8.20
2019-01-20T07:27:53.748Z,9.90
2019-01-20T07:28:53.749Z,9.60
2019-01-20T07:29:53.728Z,9.60
2019-01-20T07:30:53.721Z,8.90
2019-01-20T07:31:53.739Z,8.70
2019-01-20T07:32:53.693Z,8.90
2019-01-20T07:33:53.707Z,8.80
2019-01-20T07:34:53.667Z,8.90
2019-01-20T07:35:53.661Z,9.40
2019-01-20T07:36:53.645Z,9.30
2019-01-20T07:37:53.662Z,9.30
2019-01-20T07:38:53.625Z,10.30
2019-01-20T07:39:53.643Z,11.90
2019-01-20T07:40:53.631Z,11.50
2019-01-20T07:41:53.593Z,9.30
2019-01-20T07:42:53.582Z,10.90
2019-01-20T07:43:53.576Z,11.70
2019-01-20T07:44:53.561Z,11.60
2019-01-20T07:45:53.593Z,11.40
2019-01-20T07:46:53.542Z,10.70
2019-01-20T07:47:53.526Z,10.50
2019-01-20T07:48:53.541Z,9.10
2019-01-20T07:49:53.504Z,9.50
2019-01-20T07:50:53.496Z,10.30
2019-01-20T07:51:53.528Z,9.60
2019-01-20T07:52:53.473Z,10.40
2019-01-20T07:53:53.467Z,9.90
2019-01-20T07:54:53.453Z,9.90
2019-01-20T07:55:53.442Z,10.70
2019-01-20T07:56:53.454Z,8.90
2019-01-20T07:57:53.434Z,9.60
2019-01-20T07:58:53.410Z,8.90
2019-01-20T07:59:53.435Z,9.30
2019-01-20T08:00:53.390Z,9.60
2019-01-20T08:01:53.380Z,10.10
2019-01-20T08:02:53.364Z,9.90
2019-01-20T08:03:53.369Z,10.20
2019-01-20T08:04:53.373Z,9.40
2019-01-20T08:05:53.333Z,8.90
2019-01-20T08:06:53.322Z,8.50
2019-01-20T08:07:53.336Z,8.70
2019-01-20T08:08:53.301Z,8.70
2019-01-20T08:09:53.322Z,8.70
2019-01-20T08:10:53.294Z,8.60
2019-01-20T08:11:53.268Z,8.70
2019-01-20T08:12:53.284Z,11.40
2019-01-20T08:13:53.249Z,13.60
2019-01-20T08:14:53.238Z,10.10
2019-01-20T08:15:53.225Z,9.00
2019-01-20T08:16:53.226Z,10.40
2019-01-20T08:17:53.239Z,10.80
2019-01-20T08:18:53.193Z,11.30
2019-01-20T08:19:53.181Z,11.80
2019-01-20T08:20:53.177Z,11.30
2019-01-20T08:21:53.160Z,11.20
2019-01-20T08:22:53.179Z,11.20
2019-01-20T08:23:53.141Z,10.60
2019-01-20T08:24:53.127Z,10.20
2019-01-20T08:25:53.117Z,10.60
2019-01-20T08:26:53.107Z,11.40
2019-01-20T08:27:53.121Z,11.90
2019-01-20T08:28:53.095Z,10.60
2019-01-20T08:29:53.075Z,10.50
2019-01-20T08:30:53.079Z,10.00
2019-01-20T08:31:53.053Z,10.60
2019-01-20T08:32:53.068Z,10.40
2019-01-20T08:33:53.034Z,10.30
2019-01-20T08:34:53.019Z,9.70
2019-01-20T08:35:53.049Z,10.00
2019-01-20T08:36:53.000Z,9.70
2019-01-20T08:37:52.986Z,9.40
2019-01-20T08:38:52.976Z,9.50
2019-01-20T08:39:52.967Z,8.80
2019-01-20T08:40:52.982Z,9.10
2019-01-20T08:41:52.951Z,9.10
2019-01-20T08:42:52.935Z,9.00
2019-01-20T08:43:52.950Z,8.60
2019-01-20T08:44:52.910Z,8.60
2019-01-20T08:45:52.899Z,9.50
2019-01-20T08:46:52.889Z,8.30
2019-01-20T08:47:52.879Z,8.60
2019-01-20T08:48:52.894Z,8.30
2019-01-20T08:49:52.857Z,7.40
2019-01-20T08:50:52.846Z,8.00
2019-01-20T08:51:52.835Z,8.50
2019-01-20T08:52:52.858Z,8.10
2019-01-20T08:53:52.812Z,8.80
2019-01-20T08:54:52.816Z,8.00
2019-01-20T08:55:52.805Z,9.00
2019-01-20T08:56:52.781Z,8.80
2019-01-20T08:57:52.795Z,8.90
2019-01-20T08:58:52.759Z,7.80
2019-01-20T08:59:52.750Z,8.70
2019-01-20T09:00:52.737Z,8.30
2019-01-20T09:01:52.740Z,8.70
2019-01-20T09:02:52.761Z,9.00
2019-01-20T09:03:52.702Z,8.80
2019-01-20T09:04:52.694Z,8.80
2019-01-20T09:05:52.683Z,9.10
2019-01-20T09:06:52.676Z,8.40
2019-01-20T09:07:52.687Z,9.10
2019-01-20T09:08:52.657Z,8.70
2019-01-20T09:09:52.665Z,8.80
2019-01-20T09:10:52.640Z,9.00
2019-01-20T09:11:52.645Z,9.30
2019-01-20T09:12:52.632Z,8.30
2019-01-20T09:13:52.598Z,8.70
2019-01-20T09:14:52.591Z,8.40
2019-01-20T09:15:52.590Z,8.90
2019-01-20T09:16:52.587Z,8.90
2019-01-20T09:17:52.552Z,8.90
2019-01-20T09:18:52.563Z,8.90
2019-01-20T09:19:52.572Z,8.80
2019-01-20T09:20:52.518Z,8.50
2019-01-20T09:21:52.508Z,9.20
2019-01-20T09:22:52.501Z,9.40
2019-01-20T09:23:52.491Z,9.40
2019-01-20T09:24:52.515Z,8.70
2019-01-20T09:25:52.467Z,9.10
2019-01-20T09:26:52.456Z,8.50
2019-01-20T09:27:52.443Z,9.50
2019-01-20T09:28:52.433Z,9.10
2019-01-20T09:29:52.453Z,9.20
2019-01-20T09:30:52.416Z,8.60
2019-01-20T09:31:52.411Z,9.50
2019-01-20T09:32:52.387Z,9.00
2019-01-20T09:33:52.378Z,9.20
2019-01-20T09:34:52.391Z,9.40
2019-01-20T09:35:52.357Z,9.30
2019-01-20T09:36:52.343Z,9.30
2019-01-20T09:37:52.374Z,9.00
2019-01-20T09:38:52.329Z,9.20
2019-01-20T09:39:52.315Z,9.00
2019-01-20T09:40:52.337Z,8.30
2019-01-20T09:41:52.290Z,9.20
2019-01-20T09:42:52.281Z,8.30
2019-01-20T09:43:52.269Z,9.60
2019-01-20T09:44:52.259Z,8.70
2019-01-20T09:45:52.273Z,8.90
2019-01-20T09:46:52.234Z,9.20
2019-01-20T09:47:52.225Z,9.20
2019-01-20T09:48:52.213Z,9.20
2019-01-20T09:49:52.204Z,9.00
2019-01-20T09:50:52.217Z,9.70
2019-01-20T09:51:52.214Z,8.50
2019-01-20T09:52:53.790Z,8.90
2019-01-20T09:53:52.165Z,9.60
2019-01-20T09:54:52.148Z,9.70
2019-01-20T09:55:52.171Z,9.60
2019-01-20T09:56:52.133Z,9.20
2019-01-20T09:57:52.146Z,9.70
2019-01-20T09:58:52.117Z,9.10
2019-01-20T09:59:52.098Z,9.40
2019-01-20T10:00:52.082Z,8.90
2019-01-20T10:01:52.106Z,9.20
2019-01-20T10:02:52.073Z,9.60
2019-01-20T10:03:52.055Z,10.20
2019-01-20T10:04:52.038Z,9.20
2019-01-20T10:05:52.030Z,9.60
2019-01-20T10:06:52.047Z,10.00
2019-01-20T10:07:52.034Z,9.60
2019-01-20T10:08:52.005Z,10.20
2019-01-20T10:09:51.999Z,9.60
2019-01-20T10:10:51.972Z,9.20
2019-01-20T10:11:51.985Z,9.60
2019-01-20T10:12:51.954Z,9.60
2019-01-20T10:13:54.894Z,9.40
2019-01-20T10:14:51.934Z,10.00
2019-01-20T10:15:52.367Z,10.00
2019-01-20T10:16:53.037Z,9.70
2019-01-20T10:17:51.930Z,9.80
2019-01-20T10:18:51.883Z,8.90
2019-01-20T10:19:51.879Z,10.60
2019-01-20T10:20:51.866Z,9.90
2019-01-20T10:21:51.875Z,10.80
2019-01-20T10:22:51.855Z,10.30
2019-01-20T10:23:51.831Z,10.30
2019-01-20T10:24:51.819Z,10.10
2019-01-20T10:25:51.807Z,10.30
2019-01-20T10:26:51.826Z,12.60
2019-01-20T10:27:51.789Z,14.10
2019-01-20T10:28:51.809Z,11.50
2019-01-20T10:29:51.774Z,10.70
2019-01-20T10:30:51.757Z,11.40
2019-01-20T10:31:51.744Z,10.70
2019-01-20T10:32:51.731Z,12.00
2019-01-20T10:33:51.750Z,11.30
2019-01-20T10:34:51.755Z,11.20
2019-01-20T10:35:51.705Z,10.40
2019-01-20T10:36:51.686Z,10.40
2019-01-20T10:37:51.677Z,11.00
2019-01-20T10:38:51.664Z,10.50
2019-01-20T10:39:51.685Z,10.70
2019-01-20T10:40:51.673Z,10.40
2019-01-20T10:41:51.637Z,10.80
2019-01-20T10:42:51.620Z,11.20
2019-01-20T10:43:51.613Z,10.90
2019-01-20T10:44:51.603Z,11.50
2019-01-20T10:45:51.612Z,10.90
2019-01-20T10:46:51.593Z,11.10
2019-01-20T10:47:51.580Z,11.40
2019-01-20T10:48:51.554Z,10.90
2019-01-20T10:49:51.545Z,11.40
2019-01-20T10:50:51.556Z,11.50
2019-01-20T10:51:51.521Z,11.40
2019-01-20T10:52:51.515Z,11.00
2019-01-20T10:53:53.135Z,12.00
2019-01-20T10:54:51.489Z,11.70
2019-01-20T10:55:51.502Z,10.90
2019-01-20T10:56:51.466Z,11.70
2019-01-20T10:57:51.456Z,11.60
2019-01-20T10:58:51.448Z,11.50
2019-01-20T10:59:51.444Z,11.00
2019-01-20T11:00:51.465Z,11.60
2019-01-20T11:01:51.416Z,11.60
2019-01-20T11:02:51.409Z,11.50
2019-01-20T11:03:51.393Z,11.40
2019-01-20T11:04:57.469Z,11.90
2019-01-20T11:05:52.409Z,13.90
2019-01-20T11:06:51.363Z,17.90
2019-01-20T11:07:51.354Z,14.40
2019-01-20T11:08:51.339Z,14.20
2019-01-20T11:09:51.333Z,12.90
2019-01-20T11:10:51.320Z,12.70
2019-01-20T11:11:51.335Z,13.80
2019-01-20T11:12:51.326Z,16.60
2019-01-20T11:13:51.281Z,14.90
2019-01-20T11:14:51.301Z,12.90
2019-01-20T11:15:51.262Z,13.50
2019-01-20T11:16:51.254Z,17.00
2019-01-20T11:17:52.829Z,15.70
2019-01-20T11:18:51.251Z,16.20
2019-01-20T11:19:51.238Z,16.80
2019-01-20T11:20:51.202Z,16.60
2019-01-20T11:21:51.192Z,12.90
2019-01-20T11:22:51.270Z,12.20
2019-01-20T11:23:51.170Z,14.60
2019-01-20T11:24:51.156Z,15.60
2019-01-20T11:25:51.146Z,14.70
2019-01-20T11:26:51.138Z,16.90
2019-01-20T11:27:51.170Z,15.30
2019-01-20T11:28:51.115Z,12.60
2019-01-20T11:29:51.106Z,16.80
2019-01-20T11:30:51.095Z,17.50
2019-01-20T11:31:51.079Z,14.60
2019-01-20T11:32:51.124Z,13.80
2019-01-20T11:33:51.066Z,12.50
2019-01-20T11:34:51.053Z,12.20
2019-01-20T11:35:51.038Z,12.10
2019-01-20T11:36:51.027Z,12.70
2019-01-20T11:37:51.052Z,12.20
2019-01-20T11:38:51.003Z,12.40
2019-01-20T11:39:50.994Z,12.70
2019-01-20T11:40:50.982Z,12.60
2019-01-20T11:41:50.977Z,13.10
2019-01-20T11:42:50.996Z,12.40
2019-01-20T11:43:50.958Z,12.00
2019-01-20T11:44:50.942Z,12.90
2019-01-20T11:45:50.928Z,12.20
2019-01-20T11:46:50.923Z,13.10
2019-01-20T11:47:50.935Z,12.50
2019-01-20T11:48:50.898Z,12.70
2019-01-20T11:49:50.895Z,13.00
2019-01-20T11:50:50.904Z,12.90
2019-01-20T11:51:50.862Z,12.50
2019-01-20T11:52:50.861Z,11.90
2019-01-20T11:53:50.841Z,12.70
2019-01-20T11:54:50.834Z,12.70
2019-01-20T11:55:50.853Z,12.50
2019-01-20T11:56:50.813Z,12.50
2019-01-20T11:57:50.798Z,12.30
2019-01-20T11:58:50.792Z,12.30
2019-01-20T11:59:50.778Z,12.90
2019-01-20T12:00:50.792Z,12.10
2019-01-20T12:01:50.977Z,13.20
2019-01-20T12:02:50.749Z,12.40
2019-01-20T12:03:50.757Z,13.40
2019-01-20T12:04:50.727Z,13.10
2019-01-20T12:05:50.708Z,12.30
2019-01-20T12:06:50.712Z,13.10
2019-01-20T12:07:50.693Z,12.80
2019-01-20T12:08:50.721Z,13.10
2019-01-20T12:09:50.665Z,13.20
2019-01-20T12:10:50.663Z,13.20
2019-01-20T12:11:50.649Z,12.30
2019-01-20T12:12:50.633Z,13.00
2019-01-20T12:13:50.660Z,13.70
2019-01-20T12:14:50.630Z,12.40
2019-01-20T12:15:50.602Z,12.80
2019-01-20T12:16:50.594Z,12.70
2019-01-20T12:17:50.590Z,12.70
2019-01-20T12:18:50.591Z,12.10
2019-01-20T12:19:50.559Z,12.00
2019-01-20T12:20:50.574Z,12.70
2019-01-20T12:21:50.537Z,11.90
2019-01-20T12:22:50.526Z,12.80
2019-01-20T12:23:50.512Z,12.40
2019-01-20T12:24:50.529Z,12.80
2019-01-20T12:25:50.490Z,12.90
2019-01-20T12:26:50.485Z,12.80
2019-01-20T12:27:50.475Z,13.90
2019-01-20T12:28:50.456Z,12.70
2019-01-20T12:29:52.002Z,12.10
2019-01-20T12:30:50.441Z,11.80
2019-01-20T12:31:50.425Z,11.60
2019-01-20T12:32:50.427Z,11.90
2019-01-20T12:36:10.605Z,11.70
2019-01-20T12:37:08.710Z,12.60
2019-01-20T12:38:08.697Z,12.60
2019-01-20T12:39:08.687Z,12.60
2019-01-20T12:40:08.698Z,12.50
2019-01-20T12:41:08.665Z,12.80
2019-01-20T12:42:08.657Z,12.60
2019-01-20T12:43:08.648Z,12.50
2019-01-20T12:44:08.640Z,12.50
2019-01-20T12:45:08.644Z,12.60
2019-01-20T12:46:08.615Z,12.60
2019-01-20T12:47:08.602Z,12.40
2019-01-20T12:48:08.613Z,12.60
2019-01-20T12:49:08.580Z,11.50
2019-01-20T12:50:08.573Z,12.00
2019-01-20T12:51:12.444Z,12.20
2019-01-20T12:52:08.550Z,12.40
2019-01-20T12:53:08.563Z,12.60
2019-01-20T12:54:08.523Z,11.80
2019-01-20T12:55:08.514Z,11.40
2019-01-20T12:56:08.508Z,12.40
2019-01-20T12:57:08.488Z,12.40
2019-01-20T12:58:08.498Z,11.70
2019-01-20T12:59:08.468Z,12.10
2019-01-20T13:00:08.457Z,12.00
2019-01-20T13:01:08.450Z,12.00
2019-01-20T13:02:08.472Z,12.70
2019-01-20T13:03:08.423Z,12.40
2019-01-20T13:04:08.415Z,12.00
2019-01-20T13:05:08.407Z,12.10
2019-01-20T13:06:08.389Z,11.80
2019-01-20T13:07:08.411Z,11.70
2019-01-20T13:08:08.371Z,11.20
2019-01-20T13:09:08.365Z,11.80
2019-01-20T13:10:08.347Z,11.80
2019-01-20T13:11:08.337Z,11.40
2019-01-20T13:12:08.348Z,11.50
2019-01-20T13:13:08.336Z,11.80
2019-01-20T13:14:08.303Z,11.40